createdAt,value
2019-02-21T00:00:55.574Z,5.05
2019-02-21T00:01:54.697Z,5.07
2019-02-21T00:02:54.702Z,5.04
2019-02-21T00:03:54.680Z,5.02
2019-02-21T00:04:55.017Z,5
2019-02-21T00:05:54.729Z,4.97
2019-02-21T00:06:55.033Z,4.94
2019-02-21T00:07:54.655Z,4.93
2019-02-21T00:08:54.944Z,4.9
2019-02-21T00:09:55.975Z,4.9
2019-02-21T00:10:54.682Z,4.91
2019-02-21T00:11:54.651Z,4.91
2019-02-21T00:12:55.790Z,4.88
2019-02-21T00:13:54.664Z,4.9
2019-02-21T00:14:54.979Z,4.91
2019-02-21T00:15:55.101Z,4.91
2019-02-21T00:16:55.109Z,4.91
2019-02-21T00:17:54.771Z,4.9
2019-02-21T00:18:55.337Z,4.86
2019-02-21T00:19:54.653Z,4.9
2019-02-21T00:20:55.046Z,4.9
2019-02-21T00:21:54.930Z,4.87
2019-02-21T00:22:54.717Z,4.86
2019-02-21T00:23:55.079Z,4.86
2019-02-21T00:24:54.766Z,4.83
2019-02-21T00:25:55.957Z,4.83
2019-02-21T00:26:55.584Z,4.83
2019-02-21T00:27:54.983Z,4.81
2019-02-21T00:28:55.077Z,4.77
2019-02-21T00:29:54.983Z,4.8
2019-02-21T00:30:55.481Z,4.77
2019-02-21T00:31:55.326Z,4.76
2019-02-21T00:32:55.032Z,4.74
2019-02-21T00:33:54.736Z,4.72
2019-02-21T00:34:54.962Z,4.69
2019-02-21T00:35:55.025Z,4.69
2019-02-21T00:36:54.940Z,4.67
2019-02-21T00:37:54.689Z,4.7
2019-02-21T00:38:54.653Z,4.67
2019-02-21T00:39:54.774Z,4.67
2019-02-21T00:40:54.616Z,4.7
2019-02-21T00:41:55.452Z,4.63
2019-02-21T00:42:54.704Z,4.65
2019-02-21T00:43:54.688Z,4.62
2019-02-21T00:44:54.724Z,4.57
2019-02-21T00:45:54.848Z,4.55
2019-02-21T00:46:54.722Z,4.53
2019-02-21T00:47:55.023Z,4.49
2019-02-21T00:48:56.430Z,4.48
2019-02-21T00:49:54.723Z,4.49
2019-02-21T00:50:54.621Z,4.46
2019-02-21T00:51:55.329Z,4.46
2019-02-21T00:52:55.504Z,4.46
2019-02-21T00:53:54.581Z,4.43
2019-02-21T00:54:55.057Z,4.39
2019-02-21T00:55:54.633Z,4.45
2019-02-21T00:56:54.711Z,4.45
2019-02-21T00:57:55.078Z,4.4
2019-02-21T00:58:55.089Z,4.4
2019-02-21T00:59:54.988Z,4.39
2019-02-21T01:00:54.656Z,4.39
2019-02-21T01:01:54.874Z,4.42
2019-02-21T01:02:55.005Z,4.43
2019-02-21T01:03:54.905Z,4.46
2019-02-21T01:04:54.621Z,4.48
2019-02-21T01:05:54.610Z,4.46
2019-02-21T01:06:55.023Z,4.46
2019-02-21T01:07:55.071Z,4.46
2019-02-21T01:08:56.419Z,4.43
2019-02-21T01:09:54.848Z,4.45
2019-02-21T01:10:55.211Z,4.45
2019-02-21T01:11:54.568Z,4.48
2019-02-21T01:12:54.627Z,4.46
2019-02-21T01:13:54.697Z,4.46
2019-02-21T01:14:55.421Z,4.48
2019-02-21T01:15:54.408Z,4.48
2019-02-21T01:16:54.579Z,4.46
2019-02-21T01:17:54.727Z,4.46
2019-02-21T01:18:54.540Z,4.42
2019-02-21T01:19:54.597Z,4.38
2019-02-21T01:20:55.427Z,4.36
2019-02-21T01:21:54.941Z,4.38
2019-02-21T01:22:54.821Z,4.38
2019-02-21T01:23:54.573Z,4.35
2019-02-21T01:24:55.050Z,4.38
2019-02-21T01:25:54.743Z,4.38
2019-02-21T01:26:54.557Z,4.36
2019-02-21T01:27:55.065Z,4.36
2019-02-21T01:28:54.767Z,4.3
2019-02-21T01:29:54.517Z,4.35
2019-02-21T01:30:57.485Z,4.35
2019-02-21T01:31:55.201Z,4.33
2019-02-21T01:32:54.812Z,4.35
2019-02-21T01:33:54.639Z,4.36
2019-02-21T01:34:55.106Z,4.38
2019-02-21T01:35:54.613Z,4.4
2019-02-21T01:36:56.362Z,4.42
2019-02-21T01:37:55.033Z,4.42
2019-02-21T01:38:55.061Z,4.45
2019-02-21T01:39:54.618Z,4.46
2019-02-21T01:40:54.950Z,4.48
2019-02-21T01:41:54.620Z,4.49
2019-02-21T01:42:54.535Z,4.49
2019-02-21T01:43:54.875Z,4.52
2019-02-21T01:44:54.572Z,4.52
2019-02-21T01:45:54.843Z,4.53
2019-02-21T01:46:54.614Z,4.55
2019-02-21T01:47:54.788Z,4.55
2019-02-21T01:48:54.905Z,4.53
2019-02-21T01:49:56.367Z,4.55
2019-02-21T01:50:54.491Z,4.55
2019-02-21T01:51:56.343Z,4.55
2019-02-21T01:52:54.600Z,4.56
2019-02-21T01:53:54.555Z,4.53
2019-02-21T01:54:54.524Z,4.56
2019-02-21T01:55:54.837Z,4.56
2019-02-21T01:56:56.358Z,4.52
2019-02-21T01:57:54.515Z,4.52
2019-02-21T01:58:55.482Z,4.55
2019-02-21T01:59:54.472Z,4.53
2019-02-21T02:00:54.625Z,4.56
2019-02-21T02:01:55.383Z,4.56
2019-02-21T02:02:54.989Z,4.56
2019-02-21T02:03:56.328Z,4.55
2019-02-21T02:04:55.614Z,4.53
2019-02-21T02:05:54.748Z,4.53
2019-02-21T02:06:54.721Z,4.52
2019-02-21T02:07:54.819Z,4.51
2019-02-21T02:08:54.646Z,4.52
2019-02-21T02:09:56.311Z,4.51
2019-02-21T02:10:54.854Z,4.51
2019-02-21T02:11:54.297Z,4.51
2019-02-21T02:12:54.634Z,4.52
2019-02-21T02:13:54.751Z,4.52
2019-02-21T02:14:56.304Z,4.53
2019-02-21T02:15:54.668Z,4.52
2019-02-21T02:16:54.793Z,4.53
2019-02-21T02:17:54.490Z,4.53
2019-02-21T02:18:54.571Z,4.53
2019-02-21T02:19:54.687Z,4.53
2019-02-21T02:20:54.520Z,4.55
2019-02-21T02:21:55.435Z,4.53
2019-02-21T02:22:55.333Z,4.52
2019-02-21T02:23:54.653Z,4.53
2019-02-21T02:24:55.142Z,4.56
2019-02-21T02:25:54.678Z,4.55
2019-02-21T02:26:54.844Z,4.55
2019-02-21T02:27:54.770Z,4.52
2019-02-21T02:28:56.292Z,4.55
2019-02-21T02:29:54.508Z,4.53
2019-02-21T02:30:54.543Z,4.52
2019-02-21T02:31:54.787Z,4.53
2019-02-21T02:32:54.613Z,4.55
2019-02-21T02:33:54.461Z,4.56
2019-02-21T02:34:54.536Z,4.55
2019-02-21T02:35:54.562Z,4.56
2019-02-21T02:36:55.093Z,4.56
2019-02-21T02:37:55.947Z,4.55
2019-02-21T02:38:54.463Z,4.55
2019-02-21T02:39:54.465Z,4.57
2019-02-21T02:40:55.847Z,4.55
2019-02-21T02:41:54.520Z,4.56
2019-02-21T02:42:54.549Z,4.55
2019-02-21T02:43:55.873Z,4.55
2019-02-21T02:44:55.435Z,4.53
2019-02-21T02:45:54.763Z,4.53
2019-02-21T02:46:54.691Z,4.56
2019-02-21T02:47:55.023Z,4.55
2019-02-21T02:48:55.237Z,4.52
2019-02-21T02:49:54.417Z,4.49
2019-02-21T02:50:54.498Z,4.48
2019-02-21T02:51:54.557Z,4.49
2019-02-21T02:52:54.473Z,4.46
2019-02-21T02:53:54.495Z,4.45
2019-02-21T02:54:54.491Z,4.43
2019-02-21T02:55:54.723Z,4.42
2019-02-21T02:56:55.019Z,4.42
2019-02-21T02:57:54.641Z,4.4
2019-02-21T02:58:54.718Z,4.39
2019-02-21T02:59:54.965Z,4.39
2019-02-21T03:00:55.638Z,4.4
2019-02-21T03:01:54.727Z,4.39
2019-02-21T03:02:54.533Z,4.39
2019-02-21T03:03:54.865Z,4.36
2019-02-21T03:04:54.465Z,4.38
2019-02-21T03:05:55.176Z,4.38
2019-02-21T03:06:55.381Z,4.36
2019-02-21T03:07:54.656Z,4.36
2019-02-21T03:08:54.439Z,4.33
2019-02-21T03:09:54.823Z,4.35
2019-02-21T03:10:54.425Z,4.36
2019-02-21T03:11:55.648Z,4.36
2019-02-21T03:12:55.539Z,4.36
2019-02-21T03:13:54.848Z,4.35
2019-02-21T03:14:54.398Z,4.32
2019-02-21T03:15:55.332Z,4.32
2019-02-21T03:16:54.380Z,4.32
2019-02-21T03:17:56.706Z,4.3
2019-02-21T03:18:56.207Z,4.32
2019-02-21T03:19:54.514Z,4.3
2019-02-21T03:20:54.415Z,4.32
2019-02-21T03:21:54.395Z,4.29
2019-02-21T03:22:55.278Z,4.28
2019-02-21T03:23:55.381Z,4.29
2019-02-21T03:24:54.363Z,4.29
2019-02-21T03:25:54.937Z,4.29
2019-02-21T03:26:54.638Z,4.32
2019-02-21T03:27:54.948Z,4.32
2019-02-21T03:28:54.458Z,4.3
2019-02-21T03:29:54.571Z,4.35
2019-02-21T03:30:54.512Z,4.35
2019-02-21T03:31:56.741Z,4.36
2019-02-21T03:32:54.596Z,4.36
2019-02-21T03:33:54.445Z,4.38
2019-02-21T03:34:54.578Z,4.36
2019-02-21T03:35:54.670Z,4.4
2019-02-21T03:36:54.596Z,4.36
2019-02-21T03:37:54.362Z,4.4
2019-02-21T03:38:55.315Z,4.39
2019-02-21T03:39:54.362Z,4.4
2019-02-21T03:40:54.419Z,4.4
2019-02-21T03:41:55.231Z,4.39
2019-02-21T03:42:54.763Z,4.42
2019-02-21T03:43:54.658Z,4.4
2019-02-21T03:44:54.397Z,4.42
2019-02-21T03:45:55.054Z,4.4
2019-02-21T03:46:54.442Z,4.4
2019-02-21T03:47:54.574Z,4.4
2019-02-21T03:48:54.407Z,4.4
2019-02-21T03:49:55.288Z,4.42
2019-02-21T03:50:55.336Z,4.43
2019-02-21T03:51:54.401Z,4.4
2019-02-21T03:52:54.354Z,4.4
2019-02-21T03:53:54.838Z,4.4
2019-02-21T03:54:54.704Z,4.39
2019-02-21T03:55:54.350Z,4.38
2019-02-21T03:56:54.625Z,4.4
2019-02-21T03:57:54.637Z,4.42
2019-02-21T03:58:54.361Z,4.42
2019-02-21T03:59:54.541Z,4.4
2019-02-21T04:00:54.352Z,4.48
2019-02-21T04:02:05.963Z,4.45
2019-02-21T04:02:54.525Z,4.45
2019-02-21T04:03:54.455Z,4.46
2019-02-21T04:04:54.457Z,4.42
2019-02-21T04:05:54.671Z,4.46
2019-02-21T04:06:54.835Z,4.48
2019-02-21T04:07:54.375Z,4.48
2019-02-21T04:08:54.425Z,4.49
2019-02-21T04:09:54.403Z,4.48
2019-02-21T04:10:54.653Z,4.52
2019-02-21T04:11:55.034Z,4.49
2019-02-21T04:12:56.146Z,4.49
2019-02-21T04:13:54.126Z,4.49
2019-02-21T04:14:54.116Z,4.53
2019-02-21T04:15:54.125Z,4.52
2019-02-21T04:16:54.103Z,4.55
2019-02-21T04:17:54.948Z,4.56
2019-02-21T04:18:54.563Z,4.56
2019-02-21T04:19:54.350Z,4.57
2019-02-21T04:20:54.359Z,4.59
2019-02-21T04:21:54.353Z,4.59
2019-02-21T04:22:54.350Z,4.6
2019-02-21T04:23:54.414Z,4.62
2019-02-21T04:24:54.243Z,4.62
2019-02-21T04:25:54.356Z,4.63
2019-02-21T04:26:54.311Z,4.62
2019-02-21T04:27:54.291Z,4.6
2019-02-21T04:28:54.366Z,4.6
2019-02-21T04:29:54.361Z,4.6
2019-02-21T04:30:54.433Z,4.62
2019-02-21T04:31:54.572Z,4.59
2019-02-21T04:32:55.065Z,4.62
2019-02-21T04:33:55.296Z,4.6
2019-02-21T04:34:56.124Z,4.57
2019-02-21T04:35:54.685Z,4.56
2019-02-21T04:36:54.538Z,4.59
2019-02-21T04:37:54.501Z,4.56
2019-02-21T04:38:54.440Z,4.55
2019-02-21T04:39:54.292Z,4.55
2019-02-21T04:40:54.705Z,4.53
2019-02-21T04:41:54.375Z,4.53
2019-02-21T04:42:54.702Z,4.51
2019-02-21T04:43:54.337Z,4.53
2019-02-21T04:44:54.809Z,4.49
2019-02-21T04:45:54.546Z,4.51
2019-02-21T04:46:54.553Z,4.52
2019-02-21T04:47:55.051Z,4.52
2019-02-21T04:48:54.385Z,4.52
2019-02-21T04:49:54.565Z,4.53
2019-02-21T04:50:54.703Z,4.52
2019-02-21T04:51:54.353Z,4.51
2019-02-21T04:52:54.327Z,4.53
2019-02-21T04:53:54.261Z,4.51
2019-02-21T04:54:55.218Z,4.51
2019-02-21T04:55:54.278Z,4.51
2019-02-21T04:56:54.617Z,4.55
2019-02-21T04:57:54.758Z,4.53
2019-02-21T04:58:54.286Z,4.55
2019-02-21T04:59:54.633Z,4.56
2019-02-21T05:00:56.056Z,4.53
2019-02-21T05:01:54.042Z,4.52
2019-02-21T05:02:54.059Z,4.55
2019-02-21T05:03:54.042Z,4.53
2019-02-21T05:04:54.326Z,4.53
2019-02-21T05:05:54.311Z,4.53
2019-02-21T05:06:54.418Z,4.53
2019-02-21T05:07:55.123Z,4.53
2019-02-21T05:08:54.779Z,4.53
2019-02-21T05:09:58.843Z,4.53
2019-02-21T05:10:54.283Z,4.59
2019-02-21T05:11:54.264Z,4.57
2019-02-21T05:12:54.450Z,4.62
2019-02-21T05:13:55.758Z,4.62
2019-02-21T05:14:56.062Z,4.63
2019-02-21T05:15:54.303Z,4.65
2019-02-21T05:16:55.245Z,4.65
2019-02-21T05:17:54.749Z,4.65
2019-02-21T05:18:54.750Z,4.66
2019-02-21T05:19:54.462Z,4.65
2019-02-21T05:20:55.070Z,4.6
2019-02-21T05:21:54.217Z,4.66
2019-02-21T05:22:54.281Z,4.65
2019-02-21T05:23:54.235Z,4.66
2019-02-21T05:24:54.152Z,4.66
2019-02-21T05:25:54.397Z,4.66
2019-02-21T05:26:54.515Z,4.69
2019-02-21T05:27:54.430Z,4.67
2019-02-21T05:28:54.211Z,4.7
2019-02-21T05:29:54.633Z,4.69
2019-02-21T05:30:54.330Z,4.67
2019-02-21T05:31:54.227Z,4.72
2019-02-21T05:32:54.245Z,4.7
2019-02-21T05:33:54.554Z,4.69
2019-02-21T05:34:54.263Z,4.72
2019-02-21T05:35:54.224Z,4.72
2019-02-21T05:36:54.236Z,4.73
2019-02-21T05:37:54.233Z,4.74
2019-02-21T05:38:54.779Z,4.7
2019-02-21T05:39:55.216Z,4.72
2019-02-21T05:40:56.017Z,4.72
2019-02-21T05:41:54.299Z,4.72
2019-02-21T05:42:54.198Z,4.72
2019-02-21T05:43:54.395Z,4.76
2019-02-21T05:44:54.410Z,4.72
2019-02-21T05:45:54.234Z,4.73
2019-02-21T05:46:54.123Z,4.73
2019-02-21T05:47:54.553Z,4.74
2019-02-21T05:48:54.251Z,4.76
2019-02-21T05:49:54.201Z,4.74
2019-02-21T05:50:54.541Z,4.72
2019-02-21T05:51:54.268Z,4.76
2019-02-21T05:52:54.373Z,4.73
2019-02-21T05:53:54.373Z,4.74
2019-02-21T05:54:54.376Z,4.76
2019-02-21T05:55:54.561Z,4.76
2019-02-21T05:56:54.246Z,4.73
2019-02-21T05:57:54.164Z,4.74
2019-02-21T05:58:54.122Z,4.76
2019-02-21T05:59:54.297Z,4.76
2019-02-21T06:00:55.209Z,4.77
2019-02-21T06:01:54.436Z,4.74
2019-02-21T06:02:54.635Z,4.74
2019-02-21T06:03:54.242Z,4.76
2019-02-21T06:04:54.466Z,4.76
2019-02-21T06:05:54.179Z,4.8
2019-02-21T06:06:55.981Z,4.8
2019-02-21T06:07:54.481Z,4.8
2019-02-21T06:08:54.131Z,4.81
2019-02-21T06:09:54.132Z,4.83
2019-02-21T06:10:54.583Z,4.83
2019-02-21T06:11:54.283Z,4.81
2019-02-21T06:12:54.698Z,4.81
2019-02-21T06:13:54.528Z,4.81
2019-02-21T06:14:54.617Z,4.8
2019-02-21T06:15:54.894Z,4.81
2019-02-21T06:16:55.965Z,4.81
2019-02-21T06:17:54.170Z,4.8
2019-02-21T06:18:54.335Z,4.8
2019-02-21T06:19:54.766Z,4.79
2019-02-21T06:20:54.151Z,4.8
2019-02-21T06:21:54.978Z,4.8
2019-02-21T06:22:55.945Z,4.79
2019-02-21T06:23:54.943Z,4.74
2019-02-21T06:24:54.162Z,4.74
2019-02-21T06:25:59.485Z,4.74
2019-02-21T06:26:55.373Z,4.73
2019-02-21T06:27:54.230Z,4.73
2019-02-21T06:28:54.726Z,4.72
2019-02-21T06:29:54.472Z,4.7
2019-02-21T06:30:54.063Z,4.67
2019-02-21T06:31:54.636Z,4.7
2019-02-21T06:33:05.710Z,4.67
2019-02-21T06:33:54.088Z,4.66
2019-02-21T06:34:54.348Z,4.66
2019-02-21T06:35:54.439Z,4.63
2019-02-21T06:36:54.210Z,4.63
2019-02-21T06:37:54.336Z,4.65
2019-02-21T06:38:54.293Z,4.62
2019-02-21T06:39:54.687Z,4.6
2019-02-21T06:40:54.265Z,4.62
2019-02-21T06:42:00.572Z,4.62
2019-02-21T06:42:54.108Z,4.62
2019-02-21T06:43:57.127Z,4.6
2019-02-21T06:44:55.938Z,4.59
2019-02-21T06:45:58.339Z,4.57
2019-02-21T06:46:54.085Z,4.59
2019-02-21T06:47:54.314Z,4.59
2019-02-21T06:48:54.846Z,4.59
2019-02-21T06:49:54.082Z,4.62
2019-02-21T06:50:55.764Z,4.62
2019-02-21T06:51:54.457Z,4.6
2019-02-21T06:52:54.359Z,4.6
2019-02-21T06:53:54.806Z,4.65
2019-02-21T06:54:54.197Z,4.63
2019-02-21T06:55:55.937Z,4.65
2019-02-21T06:56:54.304Z,4.63
2019-02-21T06:57:54.061Z,4.65
2019-02-21T06:58:54.254Z,4.72
2019-02-21T06:59:54.150Z,4.73
2019-02-21T07:00:54.300Z,4.76
2019-02-21T07:01:54.253Z,4.79
2019-02-21T07:02:54.550Z,4.77
2019-02-21T07:03:54.207Z,4.79
2019-02-21T07:04:56.967Z,4.77
2019-02-21T07:05:54.918Z,4.79
2019-02-21T07:06:57.067Z,4.8
2019-02-21T07:07:54.162Z,4.83
2019-02-21T07:08:54.391Z,4.83
2019-02-21T07:09:54.364Z,4.83
2019-02-21T07:11:06.809Z,4.83
2019-02-21T07:11:55.866Z,4.81
2019-02-21T07:12:54.180Z,4.83
2019-02-21T07:13:55.547Z,4.86
2019-02-21T07:14:54.131Z,4.87
2019-02-21T07:15:54.117Z,4.88
2019-02-21T07:16:54.408Z,4.86
2019-02-21T07:17:55.029Z,4.9
2019-02-21T07:18:54.458Z,4.94
2019-02-21T07:19:54.212Z,4.93
2019-02-21T07:20:54.478Z,4.95
2019-02-21T07:21:54.249Z,4.95
2019-02-21T07:22:54.275Z,4.97
2019-02-21T07:23:54.764Z,4.98
2019-02-21T07:24:54.423Z,4.97
2019-02-21T07:25:54.225Z,4.98
2019-02-21T07:26:55.895Z,5
2019-02-21T07:27:54.791Z,5.02
2019-02-21T07:28:54.702Z,5.05
2019-02-21T07:29:55.862Z,5.04
2019-02-21T07:30:54.505Z,5.07
2019-02-21T07:31:54.206Z,5.1
2019-02-21T07:32:54.043Z,5.1
2019-02-21T07:33:54.341Z,5.11
2019-02-21T07:34:54.035Z,5.15
2019-02-21T07:35:54.439Z,5.16
2019-02-21T07:36:54.344Z,5.15
2019-02-21T07:37:54.057Z,5.21
2019-02-21T07:39:19.833Z,5.22
2019-02-21T07:39:54.037Z,5.22
2019-02-21T07:40:54.878Z,5.23
2019-02-21T07:41:55.972Z,5.23
2019-02-21T07:42:54.109Z,5.25
2019-02-21T07:43:54.289Z,5.26
2019-02-21T07:44:54.755Z,5.26
2019-02-21T07:45:54.403Z,5.3
2019-02-21T07:46:54.080Z,5.35
2019-02-21T07:47:55.822Z,5.35
2019-02-21T07:48:54.013Z,5.36
2019-02-21T07:49:54.538Z,5.38
2019-02-21T07:50:55.856Z,5.4
2019-02-21T07:51:55.043Z,5.4
2019-02-21T07:53:03.121Z,5.42
2019-02-21T07:53:54.028Z,5.43
2019-02-21T07:55:02.685Z,5.46
2019-02-21T07:55:56.079Z,5.47
2019-02-21T07:56:54.067Z,5.47
2019-02-21T07:57:54.855Z,5.5
2019-02-21T07:58:54.080Z,5.5
2019-02-21T07:59:54.699Z,5.51
2019-02-21T08:00:54.407Z,5.54
2019-02-21T08:01:54.278Z,5.57
2019-02-21T08:02:54.911Z,5.57
2019-02-21T08:03:54.035Z,5.6
2019-02-21T08:04:54.096Z,5.64
2019-02-21T08:05:54.055Z,5.62
2019-02-21T08:06:55.870Z,5.63
2019-02-21T08:07:54.481Z,5.67
2019-02-21T08:08:54.028Z,5.69
2019-02-21T08:09:53.959Z,5.71
2019-02-21T08:10:53.973Z,5.74
2019-02-21T08:11:54.012Z,5.78
2019-02-21T08:12:55.799Z,5.81
2019-02-21T08:13:55.394Z,5.81
2019-02-21T08:14:56.500Z,5.85
2019-02-21T08:15:54.122Z,5.87
2019-02-21T08:16:56.304Z,5.9
2019-02-21T08:17:54.926Z,5.92
2019-02-21T08:18:53.966Z,5.94
2019-02-21T08:19:53.978Z,5.97
2019-02-21T08:20:54.121Z,5.98
2019-02-21T08:21:55.816Z,6.01
2019-02-21T08:22:54.346Z,6.05
2019-02-21T08:23:54.024Z,6.05
2019-02-21T08:24:56.769Z,6.06
2019-02-21T08:25:53.956Z,6.11
2019-02-21T08:26:54.142Z,6.15
2019-02-21T08:27:53.962Z,6.15
2019-02-21T08:28:53.933Z,6.16
2019-02-21T08:29:54.390Z,6.19
2019-02-21T08:30:54.326Z,6.22
2019-02-21T08:31:54.407Z,6.23
2019-02-21T08:32:53.998Z,6.28
2019-02-21T08:33:59.121Z,6.28
2019-02-21T08:34:53.902Z,6.29
2019-02-21T08:35:58.016Z,6.32
2019-02-21T08:36:54.650Z,6.36
2019-02-21T08:37:55.028Z,6.39
2019-02-21T08:38:54.588Z,6.39
2019-02-21T08:39:54.006Z,6.41
2019-02-21T08:40:57.381Z,6.4
2019-02-21T08:41:55.433Z,6.47
2019-02-21T08:42:53.976Z,6.46
2019-02-21T08:43:54.151Z,6.46
2019-02-21T08:44:54.010Z,6.48
2019-02-21T08:45:54.288Z,6.48
2019-02-21T08:46:54.034Z,6.51
2019-02-21T08:47:54.202Z,6.53
2019-02-21T08:48:54.518Z,6.56
2019-02-21T08:49:54.415Z,6.58
2019-02-21T08:50:54.541Z,6.57
2019-02-21T08:51:55.823Z,6.61
2019-02-21T08:52:53.982Z,6.61
2019-02-21T08:53:53.881Z,6.63
2019-02-21T08:55:00.982Z,6.61
2019-02-21T08:55:56.210Z,6.67
2019-02-21T08:56:54.170Z,6.65
2019-02-21T08:57:54.284Z,6.65
2019-02-21T08:58:54.779Z,6.71
2019-02-21T08:59:53.954Z,6.71
2019-02-21T09:00:54.755Z,6.71
2019-02-21T09:01:54.014Z,6.75
2019-02-21T09:02:54.320Z,6.77
2019-02-21T09:03:54.310Z,6.78
2019-02-21T09:04:54.248Z,6.81
2019-02-21T09:05:54.026Z,6.85
2019-02-21T09:06:54.046Z,6.85
2019-02-21T09:07:53.946Z,6.85
2019-02-21T09:08:54.077Z,6.88
2019-02-21T09:09:54.259Z,6.91
2019-02-21T09:10:54.389Z,6.92
2019-02-21T09:11:55.767Z,6.92
2019-02-21T09:12:54.158Z,6.98
2019-02-21T09:13:56.050Z,6.99
2019-02-21T09:14:54.490Z,6.98
2019-02-21T09:15:56.189Z,7.02
2019-02-21T09:16:53.993Z,7.03
2019-02-21T09:17:55.707Z,7.06
2019-02-21T09:18:54.209Z,7.09
2019-02-21T09:19:53.696Z,7.12
2019-02-21T09:20:54.559Z,7.12
2019-02-21T09:21:54.824Z,7.18
2019-02-21T09:22:54.034Z,7.18
2019-02-21T09:23:57.036Z,7.22
2019-02-21T09:24:54.283Z,7.29
2019-02-21T09:25:54.153Z,7.31
2019-02-21T09:26:53.940Z,7.3
2019-02-21T09:27:53.971Z,7.34
2019-02-21T09:28:55.670Z,7.39
2019-02-21T09:29:54.177Z,7.37
2019-02-21T09:30:54.096Z,7.4
2019-02-21T09:31:54.188Z,7.46
2019-02-21T09:32:53.937Z,7.5
2019-02-21T09:33:54.223Z,7.51
2019-02-21T09:34:55.681Z,7.55
2019-02-21T09:35:57.159Z,7.58
2019-02-21T09:36:53.915Z,7.65
2019-02-21T09:37:54.122Z,7.65
2019-02-21T09:38:54.336Z,7.67
2019-02-21T09:39:54.021Z,7.71
2019-02-21T09:40:54.171Z,7.72
2019-02-21T09:41:53.878Z,7.78
2019-02-21T09:42:54.150Z,7.85
2019-02-21T09:43:55.658Z,7.89
2019-02-21T09:44:54.406Z,7.93
2019-02-21T09:45:54.186Z,7.93
2019-02-21T09:46:55.647Z,7.95
2019-02-21T09:47:54.711Z,7.99
2019-02-21T09:48:54.101Z,8.06
2019-02-21T09:49:56.637Z,8.05
2019-02-21T09:50:53.963Z,8.09
2019-02-21T09:51:54.082Z,8.1
2019-02-21T09:52:54.130Z,8.12
2019-02-21T09:53:54.649Z,8.1
2019-02-21T09:54:53.870Z,8.12
2019-02-21T09:55:53.928Z,8.12
2019-02-21T09:56:54.255Z,8.12
2019-02-21T09:57:54.055Z,8.16
2019-02-21T09:58:53.817Z,8.19
2019-02-21T09:59:54.084Z,8.19
2019-02-21T10:00:54.289Z,8.21
2019-02-21T10:01:54.024Z,8.24
2019-02-21T10:02:56.937Z,8.24
2019-02-21T10:03:54.200Z,8.27
2019-02-21T10:05:05.938Z,8.3
2019-02-21T10:05:54.262Z,8.33
2019-02-21T10:06:53.791Z,8.36
2019-02-21T10:07:55.632Z,8.41
2019-02-21T10:08:54.693Z,8.43
2019-02-21T10:09:54.254Z,8.49
2019-02-21T10:10:54.046Z,8.54
2019-02-21T10:11:53.782Z,8.57
2019-02-21T10:12:54.008Z,8.57
2019-02-21T10:13:54.061Z,8.64
2019-02-21T10:14:54.478Z,8.68
2019-02-21T10:15:53.774Z,8.71
2019-02-21T10:16:54.090Z,8.76
2019-02-21T10:17:55.617Z,8.76
2019-02-21T10:18:53.794Z,8.8
2019-02-21T10:19:54.223Z,8.8
2019-02-21T10:20:54.615Z,8.8
2019-02-21T10:21:53.602Z,8.79
2019-02-21T10:22:54.024Z,8.79
2019-02-21T10:23:56.998Z,8.79
2019-02-21T10:24:57.292Z,8.8
2019-02-21T10:25:54.140Z,8.82
2019-02-21T10:26:55.592Z,8.83
2019-02-21T10:27:54.045Z,8.83
2019-02-21T10:28:54.759Z,8.86
2019-02-21T10:29:54.773Z,8.88
2019-02-21T10:30:55.193Z,8.89
2019-02-21T10:31:55.594Z,8.89
2019-02-21T10:32:54.141Z,8.93
2019-02-21T10:33:53.987Z,8.98
2019-02-21T10:34:53.749Z,8.99
2019-02-21T10:35:55.571Z,8.99
2019-02-21T10:36:53.707Z,9.03
2019-02-21T10:37:53.779Z,9.06
2019-02-21T10:38:54.595Z,9.11
2019-02-21T10:39:53.758Z,9.17
2019-02-21T10:40:53.947Z,9.19
2019-02-21T10:41:54.660Z,9.24
2019-02-21T10:42:54.723Z,9.29
2019-02-21T10:43:54.081Z,9.33
2019-02-21T10:44:55.587Z,9.35
2019-02-21T10:45:53.883Z,9.34
2019-02-21T10:46:55.562Z,9.37
2019-02-21T10:47:53.692Z,9.42
2019-02-21T10:48:53.923Z,9.44
2019-02-21T10:49:54.460Z,9.52
2019-02-21T10:50:53.975Z,9.57
2019-02-21T10:51:54.322Z,9.57
2019-02-21T10:52:54.935Z,9.59
2019-02-21T10:53:53.827Z,9.61
2019-02-21T10:54:53.737Z,9.63
2019-02-21T10:55:54.759Z,9.63
2019-02-21T10:56:53.759Z,9.65
2019-02-21T10:57:53.710Z,9.65
2019-02-21T10:58:53.966Z,9.63
2019-02-21T10:59:54.368Z,9.62
2019-02-21T11:00:54.066Z,9.63
2019-02-21T11:01:54.178Z,9.58
2019-02-21T11:02:53.937Z,9.62
2019-02-21T11:03:53.704Z,9.59
2019-02-21T11:04:55.395Z,9.58
2019-02-21T11:05:53.986Z,9.58
2019-02-21T11:06:53.903Z,9.54
2019-02-21T11:07:53.818Z,9.54
2019-02-21T11:08:54.163Z,9.54
2019-02-21T11:09:54.162Z,9.54
2019-02-21T11:10:54.041Z,9.52
2019-02-21T11:11:54.040Z,9.52
2019-02-21T11:12:55.518Z,9.49
2019-02-21T11:13:54.886Z,9.52
2019-02-21T11:14:54.122Z,9.52
2019-02-21T11:15:54.073Z,9.55
2019-02-21T11:16:53.697Z,9.54
2019-02-21T11:17:54.073Z,9.54
2019-02-21T11:18:54.391Z,9.54
2019-02-21T11:19:53.884Z,9.57
2019-02-21T11:20:53.885Z,9.55
2019-02-21T11:21:54.109Z,9.57
2019-02-21T11:22:54.118Z,9.55
2019-02-21T11:23:54.095Z,9.57
2019-02-21T11:24:54.181Z,9.59
2019-02-21T11:25:53.838Z,9.61
2019-02-21T11:26:53.705Z,9.62
2019-02-21T11:27:54.149Z,9.62
2019-02-21T11:28:53.959Z,9.63
2019-02-21T11:29:53.703Z,9.66
2019-02-21T11:30:53.764Z,9.68
2019-02-21T11:31:53.670Z,9.73
2019-02-21T11:32:53.839Z,9.73
2019-02-21T11:33:54.293Z,9.76
2019-02-21T11:34:53.662Z,9.79
2019-02-21T11:35:54.242Z,9.86
2019-02-21T11:36:53.988Z,9.9
2019-02-21T11:37:53.664Z,10.03
2019-02-21T11:38:54.026Z,10.09
2019-02-21T11:39:54.032Z,10.23
2019-02-21T11:40:53.765Z,10.35
2019-02-21T11:41:53.636Z,10.47
2019-02-21T11:42:54.675Z,10.56
2019-02-21T11:43:53.850Z,10.65
2019-02-21T11:44:53.959Z,10.68
2019-02-21T11:45:57.627Z,10.66
2019-02-21T11:46:53.779Z,10.71
2019-02-21T11:47:53.979Z,10.79
2019-02-21T11:48:55.477Z,10.82
2019-02-21T11:49:53.458Z,10.87
2019-02-21T11:50:53.470Z,10.9
2019-02-21T11:51:53.482Z,10.92
2019-02-21T11:52:53.458Z,10.93
2019-02-21T11:53:53.920Z,10.84
2019-02-21T11:54:53.669Z,10.79
2019-02-21T11:55:54.034Z,10.78
2019-02-21T11:56:54.695Z,10.79
2019-02-21T11:57:53.703Z,10.8
2019-02-21T11:58:54.285Z,10.82
2019-02-21T11:59:54.498Z,10.83
2019-02-21T12:00:53.967Z,10.86
2019-02-21T12:01:53.700Z,10.87
2019-02-21T12:02:55.103Z,10.86
2019-02-21T12:03:53.982Z,10.87
2019-02-21T12:04:53.987Z,10.9
2019-02-21T12:05:54.004Z,10.93
2019-02-21T12:06:53.631Z,10.96
2019-02-21T12:07:53.599Z,10.92
2019-02-21T12:08:53.653Z,10.94
2019-02-21T12:09:53.727Z,10.99
2019-02-21T12:10:53.690Z,10.99
2019-02-21T12:11:54.048Z,10.99
2019-02-21T12:12:54.071Z,11.01
2019-02-21T12:13:53.620Z,11
2019-02-21T12:14:53.993Z,11.01
2019-02-21T12:15:53.660Z,11.03
2019-02-21T12:16:54.075Z,11.07
2019-02-21T12:17:53.662Z,11.08
2019-02-21T12:18:54.456Z,11.08
2019-02-21T12:19:53.731Z,11.08
2019-02-21T12:20:54.493Z,11.07
2019-02-21T12:21:59.665Z,11.1
2019-02-21T12:22:53.702Z,11.08
2019-02-21T12:23:54.009Z,11.14
2019-02-21T12:24:54.024Z,11.14
2019-02-21T12:25:53.660Z,11.14
2019-02-21T12:26:53.822Z,11.12
2019-02-21T12:27:53.576Z,11.17
2019-02-21T12:28:53.945Z,11.17
2019-02-21T12:29:53.747Z,11.15
2019-02-21T12:30:53.750Z,11.2
2019-02-21T12:31:53.737Z,11.18
2019-02-21T12:32:53.578Z,11.22
2019-02-21T12:33:54.821Z,11.24
2019-02-21T12:34:53.637Z,11.25
2019-02-21T12:35:54.118Z,11.28
2019-02-21T12:36:53.754Z,11.3
2019-02-21T12:37:53.623Z,11.35
2019-02-21T12:38:53.937Z,11.35
2019-02-21T12:39:55.423Z,11.42
2019-02-21T12:40:53.386Z,11.42
2019-02-21T12:41:53.391Z,11.44
2019-02-21T12:42:53.619Z,11.44
2019-02-21T12:43:55.421Z,11.48
2019-02-21T12:44:53.565Z,11.49
2019-02-21T12:45:54.469Z,11.49
2019-02-21T12:46:53.663Z,11.52
2019-02-21T12:47:54.450Z,11.59
2019-02-21T12:48:55.390Z,11.61
2019-02-21T12:49:55.683Z,11.62
2019-02-21T12:50:53.715Z,11.64
2019-02-21T12:51:53.627Z,11.69
2019-02-21T12:52:54.016Z,11.69
2019-02-21T12:53:53.740Z,11.77
2019-02-21T12:54:55.408Z,11.84
2019-02-21T12:55:53.630Z,11.84
2019-02-21T12:56:53.622Z,11.89
2019-02-21T12:57:53.566Z,12.01
2019-02-21T12:58:53.548Z,12.08
2019-02-21T12:59:53.752Z,12.16
2019-02-21T13:00:53.704Z,12.2
2019-02-21T13:01:53.616Z,12.21
2019-02-21T13:02:53.552Z,12.27
2019-02-21T13:03:53.575Z,12.32
2019-02-21T13:04:53.622Z,12.35
2019-02-21T13:05:54.404Z,12.37
2019-02-21T13:06:53.660Z,12.38
2019-02-21T13:07:53.846Z,12.41
2019-02-21T13:08:54.023Z,12.39
2019-02-21T13:09:53.817Z,12.41
2019-02-21T13:10:53.561Z,12.37
2019-02-21T13:11:53.602Z,12.35
2019-02-21T13:12:55.383Z,12.39
2019-02-21T13:13:55.387Z,12.42
2019-02-21T13:14:54.053Z,12.41
2019-02-21T13:15:53.629Z,12.45
2019-02-21T13:16:53.854Z,12.48
2019-02-21T13:17:53.579Z,12.48
2019-02-21T13:18:53.500Z,12.45